Time;durP1;ratioP1;P1;durP2;ratioP2;P2;SDS_P1;SDS_P2;PMS_P1;PMS_P2;Temp;Humidity;BMP_temperature;BMP_pressure;BME280_temperature;BME280_humidity;BME280_pressure;Samples;Min_cycle;Max_cycle;Signal;HPM_P1;HPM_P2
2022/11/07 00:00:20;;;;;;;7.78;2.50;;;;;;;12.30;77.17;100527.31;3576062;40;20314;-62
2022/11/07 00:02:45;;;;;;;4.38;2.25;;;;;;;12.30;77.28;100521.03;3577600;40;20121;-60
2022/11/07 00:05:11;;;;;;;7.50;2.80;;;;;;;12.29;76.82;100524.72;3568280;40;20060;-61
2022/11/07 00:07:36;;;;;;;5.22;2.70;;;;;;;12.25;76.73;100523.22;3579976;40;20059;-61
2022/11/07 00:10:05;;;;;;;7.68;2.80;;;;;;;12.21;77.14;100511.81;3567448;40;20067;-62
2022/11/07 00:12:30;;;;;;;4.55;2.33;;;;;;;12.17;77.24;100531.00;3577925;40;20048;-62
2022/11/07 00:14:56;;;;;;;5.47;2.55;;;;;;;12.11;77.68;100526.91;3577853;40;20126;-61
2022/11/07 00:17:21;;;;;;;3.33;2.10;;;;;;;12.08;77.95;100528.03;3580089;40;20059;-61
2022/11/07 00:19:48;;;;;;;8.85;3.17;;;;;;;12.04;77.69;100531.03;3580525;40;20044;-60
2022/11/07 00:22:14;;;;;;;7.45;3.22;;;;;;;11.99;78.07;100531.38;3578195;40;20049;-60
2022/11/07 00:24:40;;;;;;;6.82;2.60;;;;;;;11.93;78.25;100539.91;3578713;40;20131;-60
2022/11/07 00:27:06;;;;;;;8.48;2.72;;;;;;;11.92;78.81;100534.63;3579218;40;20422;-60
2022/11/07 00:29:31;;;;;;;7.72;2.70;;;;;;;11.88;78.92;100536.69;3581679;40;20057;-60
2022/11/07 00:31:58;;;;;;;5.00;2.50;;;;;;;11.87;79.10;100532.28;3579436;40;20048;-60
2022/11/07 00:34:24;;;;;;;4.90;2.45;;;;;;;11.88;78.98;100538.50;3579550;40;20061;-60
2022/11/07 00:36:49;;;;;;;6.22;2.47;;;;;;;11.88;78.96;100536.69;3577791;40;20094;-59
2022/11/07 00:39:15;;;;;;;6.38;2.50;;;;;;;11.83;79.04;100544.22;3578418;40;20072;-60
2022/11/07 00:41:40;;;;;;;5.47;2.53;;;;;;;11.70;78.95;100522.66;3579837;40;20507;-60
2022/11/07 00:44:06;;;;;;;10.20;2.67;;;;;;;11.77;79.13;100529.34;3581229;40;20071;-60
2022/11/07 00:46:32;;;;;;;5.93;2.30;;;;;;;11.77;79.41;100540.13;3581072;40;20052;-60
2022/11/07 00:48:58;;;;;;;6.70;2.55;;;;;;;11.76;79.09;100537.50;3579497;40;20264;-58
2022/11/07 00:51:27;;;;;;;6.22;2.80;;;;;;;11.73;79.55;100543.13;3580932;40;20094;-60
2022/11/07 00:53:53;;;;;;;9.05;2.53;;;;;;;11.71;79.81;100545.94;3578985;40;20056;-60
2022/11/07 00:56:23;;;;;;;7.07;2.38;;;;;;;11.75;79.39;100562.72;3579257;40;20355;-59
2022/11/07 00:58:57;;;;;;;9.13;2.70;;;;;;;11.72;79.75;100562.94;3578178;40;20044;-60
2022/11/07 01:01:27;;;;;;;9.20;2.75;;;;;;;11.72;79.36;100562.94;3579294;40;20115;-60
2022/11/07 01:06:43;;;;;;;4.10;2.35;;;;;;;11.78;79.48;100554.44;3581090;40;20048;-60
2022/11/07 01:09:13;;;;;;;7.60;2.60;;;;;;;11.80;79.35;100549.81;3579980;40;20092;-60
2022/11/07 01:11:41;;;;;;;6.78;2.58;;;;;;;11.67;79.56;100540.88;3580051;40;20048;-60
2022/11/07 01:14:09;;;;;;;5.47;2.45;;;;;;;11.79;79.58;100559.69;3565985;40;20430;-60
2022/11/07 01:16:37;;;;;;;6.40;2.80;;;;;;;11.77;79.85;100560.81;3580370;40;20075;-59
2022/11/07 01:19:04;;;;;;;7.80;2.25;;;;;;;11.75;79.82;100577.06;3579550;40;19933;-60
2022/11/07 01:21:30;;;;;;;7.72;2.33;;;;;;;11.78;79.89;100573.28;3576520;40;20477;-60
2022/11/07 01:23:56;;;;;;;5.97;2.28;;;;;;;11.81;79.79;100570.38;3580063;40;20060;-61
2022/11/07 01:26:22;;;;;;;6.30;2.15;;;;;;;11.82;80.37;100575.63;3578686;40;20086;-61
2022/11/07 01:28:48;;;;;;;6.72;2.55;;;;;;;11.87;79.80;100582.59;3579419;40;20076;-60
2022/11/07 01:31:15;;;;;;;11.65;2.47;;;;;;;11.77;79.35;100564.34;3577011;40;20783;-61
2022/11/07 01:33:41;;;;;;;5.35;2.53;;;;;;;11.90;79.50;100582.38;3580326;40;20056;-61
2022/11/07 01:36:12;;;;;;;7.05;2.50;;;;;;;11.92;79.50;100591.19;3578438;40;20061;-61
2022/11/07 01:38:41;;;;;;;6.82;2.80;;;;;;;11.93;79.54;100584.84;3577490;40;20048;-62
2022/11/07 01:41:25;;;;;;;8.07;2.72;;;;;;;11.97;79.64;100578.25;3578920;40;20081;-61
2022/11/07 01:44:01;;;;;;;2.80;1.75;;;;;;;12.01;79.70;100579.75;3580013;40;20047;-61
2022/11/07 01:46:32;;;;;;;5.93;2.25;;;;;;;11.96;79.27;100568.47;3581125;40;20068;-61
2022/11/07 01:49:12;;;;;;;6.03;2.53;;;;;;;12.08;79.50;100578.34;3578584;40;20148;-61
2022/11/07 01:51:59;;;;;;;7.82;2.88;;;;;;;12.11;79.30;100583.50;3581224;40;20044;-61
2022/11/07 01:54:35;;;;;;;6.80;2.50;;;;;;;11.93;79.30;100552.53;3578321;40;20059;-61
2022/11/07 01:57:12;;;;;;;6.70;2.60;;;;;;;12.09;79.51;100582.78;3569669;40;20458;-61
2022/11/07 01:59:40;;;;;;;9.52;2.85;;;;;;;12.12;79.73;100582.56;3577423;40;20380;-61
2022/11/07 02:02:07;;;;;;;5.65;2.50;;;;;;;11.95;79.26;100553.25;3575556;40;20056;-63
2022/11/07 02:04:35;;;;;;;7.30;2.95;;;;;;;12.16;79.22;100593.97;3578388;40;20060;-62
2022/11/07 02:07:19;;;;;;;6.43;2.85;;;;;;;12.16;79.04;100594.81;3579522;40;20115;-62
2022/11/07 02:09:47;;;;;;;6.40;2.83;;;;;;;12.18;78.95;100592.00;3578741;40;20060;-61
2022/11/07 02:12:17;;;;;;;6.43;2.15;;;;;;;12.19;79.07;100589.22;3577127;40;20299;-61
2022/11/07 02:14:43;;;;;;;8.15;3.13;;;;;;;12.14;78.99;100585.13;3579789;40;20391;-61
2022/11/07 02:17:13;;;;;;;7.78;3.15;;;;;;;12.17;78.93;100595.69;3576380;40;20135;-61
2022/11/07 02:19:50;;;;;;;10.50;3.50;;;;;;;12.09;79.01;100585.47;3579441;40;20125;-62
2022/11/07 02:22:38;;;;;;;10.27;2.97;;;;;;;12.02;80.06;100590.44;3578408;40;20064;-61
2022/11/07 02:25:12;;;;;;;8.18;2.50;;;;;;;12.04;80.18;100579.53;3578055;40;20063;-61
2022/11/07 02:27:41;;;;;;;7.97;3.08;;;;;;;12.02;79.81;100585.06;3576269;40;20125;-61
2022/11/07 02:30:16;;;;;;;5.90;2.67;;;;;;;11.82;79.96;100551.41;3576593;40;20056;-61
2022/11/07 02:32:43;;;;;;;9.68;3.10;;;;;;;12.04;79.81;100584.91;3577952;40;20060;-62
2022/11/07 02:35:41;;;;;;;9.13;2.90;;;;;;;12.02;80.08;100592.25;3576733;40;20391;-61
2022/11/07 02:38:31;;;;;;;11.93;2.70;;;;;;;12.05;80.29;100594.72;3576126;40;20052;-61
2022/11/07 02:41:08;;;;;;;9.38;3.28;;;;;;;12.05;80.23;100590.22;3577790;40;20091;-62
2022/11/07 02:43:39;;;;;;;9.35;3.15;;;;;;;12.06;80.47;100583.00;3579801;40;20133;-61
2022/11/07 02:46:10;;;;;;;7.68;2.47;;;;;;;12.06;80.39;100581.16;3578708;40;20063;-61
2022/11/07 02:48:51;;;;;;;9.77;2.97;;;;;;;12.07;79.97;100585.56;3579931;40;20318;-62
2022/11/07 02:51:17;;;;;;;8.10;2.67;;;;;;;12.05;80.42;100586.63;3575781;40;20065;-62
2022/11/07 02:53:42;;;;;;;8.73;2.95;;;;;;;12.02;80.63;100590.44;3577304;40;20067;-62
2022/11/07 02:56:08;;;;;;;8.73;2.45;;;;;;;11.92;80.50;100565.09;3575060;40;20052;-61
2022/11/07 02:58:35;;;;;;;10.05;2.67;;;;;;;12.00;80.48;100586.13;3574747;40;20623;-61
2022/11/07 03:01:05;;;;;;;11.70;3.70;;;;;;;11.99;80.67;100579.88;3577291;40;20101;-61
2022/11/07 03:03:38;;;;;;;6.43;2.90;;;;;;;12.01;80.67;100579.75;3578705;40;20092;-62
2022/11/07 03:06:05;;;;;;;6.93;2.13;;;;;;;11.96;80.55;100581.94;3577106;40;20068;-63
2022/11/07 03:08:31;;;;;;;7.68;2.60;;;;;;;11.96;81.07;100576.53;3577937;40;20075;-62
2022/11/07 03:10:56;;;;;;;12.02;3.33;;;;;;;11.98;80.72;100575.44;3579906;40;20323;-61
2022/11/07 03:13:22;;;;;;;8.60;2.80;;;;;;;11.96;80.96;100584.63;3575011;40;20067;-61
2022/11/07 03:15:49;;;;;;;11.25;3.15;;;;;;;11.97;81.02;100572.88;3577246;40;20412;-62
2022/11/07 03:18:14;;;;;;;6.82;2.72;;;;;;;11.93;80.85;100574.06;3574909;40;20059;-61
2022/11/07 03:20:40;;;;;;;11.10;3.13;;;;;;;11.97;81.07;100589.88;3579167;40;20072;-61
2022/11/07 03:23:05;;;;;;;14.50;5.55;;;;;;;11.98;80.70;100596.13;3578475;40;20091;-62
2022/11/07 03:25:31;;;;;;;8.70;3.15;;;;;;;12.00;80.89;100583.44;3575207;40;20647;-61
2022/11/07 03:27:57;;;;;;;9.75;3.28;;;;;;;12.01;80.92;100579.75;3578114;40;20613;-62
2022/11/07 03:30:23;;;;;;;9.82;3.03;;;;;;;12.02;81.00;100585.06;3576792;40;20394;-61
2022/11/07 03:32:52;;;;;;;10.65;2.72;;;;;;;12.00;81.21;100581.59;3577564;40;20044;-61
2022/11/07 03:35:18;;;;;;;11.77;2.42;;;;;;;12.05;80.81;100570.47;3574174;40;20060;-62
2022/11/07 03:37:45;;;;;;;7.60;2.53;;;;;;;12.06;80.82;100578.47;3576081;40;20053;-62
2022/11/07 03:40:11;;;;;;;12.35;2.90;;;;;;;12.13;80.80;100591.50;3575017;40;20059;-62
2022/11/07 03:42:42;;;;;;;12.82;3.05;;;;;;;12.14;80.58;100580.59;3576494;40;20064;-62
2022/11/07 03:45:12;;;;;;;10.05;2.38;;;;;;;12.19;80.47;100586.50;3578561;40;20051;-61
2022/11/07 03:47:40;;;;;;;9.85;2.22;;;;;;;12.20;80.40;100590.91;3576733;40;20137;-61
2022/11/07 03:50:11;;;;;;;10.57;2.75;;;;;;;12.22;80.05;100589.00;3577868;40;20056;-61
2022/11/07 03:52:37;;;;;;;9.80;2.60;;;;;;;12.24;80.02;100599.63;3575151;40;20672;-61
2022/11/07 03:55:03;;;;;;;9.77;2.20;;;;;;;12.19;80.18;100581.13;3577270;40;20491;-62
2022/11/07 03:57:28;;;;;;;9.98;2.42;;;;;;;12.23;79.81;100589.84;3576212;40;20398;-62
2022/11/07 03:59:54;;;;;;;9.82;2.85;;;;;;;12.26;80.12;100585.09;3576527;40;20064;-61
2022/11/07 04:02:21;;;;;;;9.73;2.75;;;;;;;12.23;79.96;100579.91;3577601;40;20101;-61
2022/11/07 04:04:47;;;;;;;12.23;2.90;;;;;;;12.29;80.25;100584.88;3579903;40;20059;-61
2022/11/07 04:07:13;;;;;;;10.68;2.50;;;;;;;12.26;79.49;100579.69;3578467;40;20083;-62
2022/11/07 04:09:38;;;;;;;11.23;2.90;;;;;;;12.26;79.93;100574.31;3575546;40;20052;-63
2022/11/07 04:17:33;;;;;;;10.68;2.60;;;;;;;12.24;79.98;100588.88;3574453;40;20324;-61
2022/11/07 04:19:58;;;;;;;7.65;2.15;;;;;;;12.27;79.57;100580.56;3578201;40;20065;-62
2022/11/07 04:22:25;;;;;;;12.13;2.63;;;;;;;12.21;79.77;100575.59;3578532;40;20129;-61
2022/11/07 04:24:51;;;;;;;13.07;2.90;;;;;;;12.25;79.23;100588.75;3578910;40;20122;-62
2022/11/07 04:30:18;;;;;;;8.23;2.25;;;;;;;12.23;79.60;100589.84;3577156;40;20059;-62
2022/11/07 04:32:46;;;;;;;11.20;2.30;;;;;;;12.23;79.08;100585.31;3578190;40;20084;-61
2022/11/07 04:35:12;;;;;;;9.40;2.38;;;;;;;12.21;79.52;100595.38;3576202;40;20074;-61
2022/11/07 04:37:38;;;;;;;9.77;2.88;;;;;;;12.19;79.61;100594.59;3576897;40;20057;-62
2022/11/07 04:40:04;;;;;;;8.40;2.58;;;;;;;12.20;79.71;100599.00;3580337;40;20059;-62
2022/11/07 04:42:30;;;;;;;11.50;2.80;;;;;;;12.19;79.87;100597.28;3577302;40;20291;-62
2022/11/07 04:44:55;;;;;;;10.88;2.90;;;;;;;12.22;79.67;100594.38;3580103;40;20083;-61
2022/11/07 04:47:21;;;;;;;13.57;3.15;;;;;;;12.19;79.39;100594.59;3573932;40;20068;-62
2022/11/07 04:49:46;;;;;;;10.15;2.50;;;;;;;12.19;79.17;100599.13;3574828;40;20403;-62
2022/11/07 04:52:12;;;;;;;12.10;2.78;;;;;;;12.19;79.62;100597.28;3580407;40;20303;-62
2022/11/07 04:54:38;;;;;;;11.07;3.15;;;;;;;12.16;79.59;100597.50;3580269;40;20076;-62
2022/11/07 04:57:03;;;;;;;9.98;2.40;;;;;;;12.20;79.83;100601.69;3578936;40;20063;-61
2022/11/07 04:59:29;;;;;;;13.68;3.88;;;;;;;12.22;79.67;100596.22;3576393;40;20124;-62
2022/11/07 05:01:54;;;;;;;12.93;3.28;;;;;;;12.22;79.69;100609.69;3576956;40;20078;-62
2022/11/07 05:04:20;;;;;;;8.18;2.40;;;;;;;12.25;79.03;100596.84;3581260;40;20044;-62
2022/11/07 05:06:46;;;;;;;11.35;2.53;;;;;;;12.18;79.37;100576.72;3576755;40;20048;-62
2022/11/07 05:09:17;;;;;;;8.65;2.58;;;;;;;12.28;78.95;100598.47;3576227;40;20378;-62
2022/11/07 05:11:45;;;;;;;11.10;2.70;;;;;;;12.28;78.79;100593.94;3577077;40;20368;-62
2022/11/07 05:14:11;;;;;;;11.35;2.38;;;;;;;12.26;79.20;100603.94;3577276;40;20067;-62
2022/11/07 05:16:41;;;;;;;8.43;2.60;;;;;;;12.28;79.02;100609.25;3577128;40;20073;-63
2022/11/07 05:19:10;;;;;;;13.45;3.13;;;;;;;12.26;78.87;100603.09;3578840;40;20056;-62
2022/11/07 05:21:36;;;;;;;10.60;2.53;;;;;;;12.28;78.98;100610.09;3575651;40;20145;-62
2022/11/07 05:24:02;;;;;;;11.05;2.88;;;;;;;12.30;78.51;100607.28;3580035;40;20052;-62
2022/11/07 05:26:27;;;;;;;13.95;2.97;;;;;;;12.34;78.52;100607.91;3578966;40;20295;-62
2022/11/07 05:28:53;;;;;;;10.25;2.42;;;;;;;12.28;78.75;100599.31;3577243;40;20059;-62
2022/11/07 05:31:18;;;;;;;13.55;3.15;;;;;;;12.37;78.54;100615.78;3578991;40;20055;-62
2022/11/07 05:33:44;;;;;;;11.60;2.67;;;;;;;12.38;78.46;100609.44;3581589;40;20063;-62
2022/11/07 05:36:13;;;;;;;11.90;2.58;;;;;;;12.38;78.37;100620.22;3576024;40;20261;-62
2022/11/07 05:38:42;;;;;;;16.27;5.40;;;;;;;12.42;78.51;100613.63;3578140;40;20056;-63
2022/11/07 05:41:08;;;;;;;30.23;3.88;;;;;;;12.40;78.48;100608.38;3576766;40;20062;-62
2022/11/07 05:43:33;;;;;;;10.43;2.80;;;;;;;12.45;78.03;100616.09;3576888;40;20056;-62
2022/11/07 05:46:00;;;;;;;12.35;3.22;;;;;;;12.45;77.96;100616.09;3577557;40;20129;-62
2022/11/07 05:48:26;;;;;;;12.07;2.72;;;;;;;12.46;77.89;100612.41;3578383;40;20083;-62
2022/11/07 05:50:52;;;;;;;11.05;2.60;;;;;;;12.47;77.71;100606.06;3568647;40;21606;-62
2022/11/07 05:53:20;;;;;;;17.55;3.33;;;;;;;12.46;77.98;100607.03;3583459;40;20048;-62
2022/11/07 05:55:46;;;;;;;10.20;2.42;;;;;;;12.45;77.77;100619.66;3577748;40;20048;-62
2022/11/07 05:58:13;;;;;;;13.00;2.88;;;;;;;12.44;77.93;100609.00;3580104;40;20048;-62
2022/11/07 06:00:40;;;;;;;9.40;2.85;;;;;;;12.43;77.73;100602.75;3578096;40;20068;-62
2022/11/07 06:03:07;;;;;;;12.95;2.95;;;;;;;12.37;77.79;100587.03;3577276;40;20048;-62
2022/11/07 06:05:33;;;;;;;12.18;2.80;;;;;;;12.51;77.40;100616.50;3576980;40;20067;-62
2022/11/07 06:07:58;;;;;;;12.68;2.55;;;;;;;12.54;77.77;100615.44;3578189;40;20064;-62
2022/11/07 06:10:24;;;;;;;14.80;2.95;;;;;;;12.59;77.80;100607.88;3577593;40;20052;-62
2022/11/07 06:12:59;;;;;;;10.25;2.55;;;;;;;12.61;77.26;100614.00;3577557;40;20064;-62
2022/11/07 06:15:28;;;;;;;16.88;3.05;;;;;;;12.61;77.53;100614.00;3577824;40;20381;-62
2022/11/07 06:17:54;;;;;;;10.07;2.45;;;;;;;12.49;76.99;100587.94;3577072;40;20372;-64
2022/11/07 06:20:20;;;;;;;11.00;2.63;;;;;;;12.63;77.27;100617.44;3576581;40;20393;-62
2022/11/07 06:22:46;;;;;;;10.55;2.80;;;;;;;12.64;77.37;100613.78;3578300;40;20063;-62
2022/11/07 06:25:11;;;;;;;16.95;3.50;;;;;;;12.65;77.36;100618.19;3576730;40;20054;-62
2022/11/07 06:27:37;;;;;;;11.00;2.88;;;;;;;12.65;77.30;100612.78;3578257;40;20082;-62
2022/11/07 06:30:04;;;;;;;19.90;3.08;;;;;;;12.64;77.24;100621.84;3578122;40;20453;-63
2022/11/07 06:32:30;;;;;;;15.52;2.70;;;;;;;12.68;77.69;100627.88;3576549;40;20068;-61
2022/11/07 06:34:56;;;;;;;11.82;2.67;;;;;;;12.71;77.48;100630.34;3578310;40;20049;-61
2022/11/07 06:37:24;;;;;;;14.35;2.88;;;;;;;12.68;77.06;100617.09;3577524;40;20055;-62
2022/11/07 06:39:50;;;;;;;12.80;2.88;;;;;;;12.77;76.97;100633.47;3577964;40;20117;-62
2022/11/07 06:42:15;;;;;;;10.65;2.78;;;;;;;12.81;76.97;100634.09;3576692;40;20402;-62
2022/11/07 06:44:41;;;;;;;10.13;2.88;;;;;;;12.82;76.50;100629.59;3575084;40;20146;-62
2022/11/07 06:47:06;;;;;;;13.48;3.15;;;;;;;12.83;76.60;100644.78;3579339;40;20128;-62
2022/11/07 06:49:32;;;;;;;12.05;2.90;;;;;;;12.87;76.83;100640.88;3578922;40;20088;-62
2022/11/07 06:51:58;;;;;;;15.73;3.03;;;;;;;12.85;76.72;100646.41;3575882;40;20090;-62
2022/11/07 06:54:23;;;;;;;13.95;3.00;;;;;;;12.84;76.88;100655.44;3576818;40;20055;-62
2022/11/07 06:56:49;;;;;;;13.68;3.13;;;;;;;12.86;76.89;100652.66;3577270;40;20044;-62
2022/11/07 06:59:14;;;;;;;14.18;3.15;;;;;;;12.85;77.14;100667.13;3575616;40;20058;-62
2022/11/07 07:01:40;;;;;;;14.40;3.13;;;;;;;12.88;77.12;100656.09;3575087;40;20324;-61
2022/11/07 07:04:09;;;;;;;12.25;2.75;;;;;;;12.73;76.71;100618.47;3578676;40;20655;-62
2022/11/07 07:06:34;;;;;;;16.73;3.33;;;;;;;12.94;77.01;100655.63;3578252;40;20068;-61
2022/11/07 07:09:00;;;;;;;9.45;2.78;;;;;;;12.98;77.04;100667.94;3575747;40;20051;-61
2022/11/07 07:11:26;;;;;;;15.13;2.78;;;;;;;12.99;76.62;100669.63;3576724;40;20346;-61
2022/11/07 07:13:53;;;;;;;12.23;2.70;;;;;;;12.99;76.70;100672.34;3579909;40;20068;-62
2022/11/07 07:16:19;;;;;;;12.77;2.92;;;;;;;13.03;76.56;100673.81;3578230;40;20306;-62
2022/11/07 07:18:45;;;;;;;11.50;3.03;;;;;;;13.05;76.32;100669.19;3580007;40;20040;-61
2022/11/07 07:21:14;;;;;;;10.88;2.67;;;;;;;13.05;76.33;100669.19;3577533;40;20066;-62
2022/11/07 07:23:40;;;;;;;11.13;2.88;;;;;;;13.08;76.35;100677.06;3576939;40;20061;-62
2022/11/07 07:26:12;;;;;;;11.32;2.80;;;;;;;13.10;76.24;100676.91;3578684;40;20134;-62
2022/11/07 07:28:37;;;;;;;13.85;2.55;;;;;;;13.15;76.52;100681.00;3577168;40;20068;-62
2022/11/07 07:31:12;;;;;;;9.95;2.38;;;;;;;13.16;76.09;100688.16;3579097;40;20048;-61
2022/11/07 07:33:39;;;;;;;12.35;2.80;;;;;;;13.17;76.09;100687.16;3577981;40;20115;-61
2022/11/07 07:36:05;;;;;;;11.05;2.97;;;;;;;13.17;76.19;100680.91;3579046;40;20052;-61
2022/11/07 07:38:31;;;;;;;12.82;2.60;;;;;;;13.23;75.85;100691.25;3578129;40;20048;-62
2022/11/07 07:40:58;;;;;;;8.95;2.22;;;;;;;13.28;76.34;100697.16;3580841;40;20326;-61
2022/11/07 07:43:25;;;;;;;12.20;2.63;;;;;;;13.31;76.15;100690.69;3578920;40;20419;-61
2022/11/07 07:45:50;;;;;;;12.48;2.75;;;;;;;13.32;76.22;100696.00;3576652;40;20129;-61
2022/11/07 07:48:16;;;;;;;11.40;3.00;;;;;;;13.31;75.90;100691.53;3578793;40;20060;-61
2022/11/07 07:50:42;;;;;;;13.20;2.88;;;;;;;13.39;76.25;100707.19;3575024;40;20125;-62
2022/11/07 07:53:07;;;;;;;13.88;3.20;;;;;;;13.42;76.38;100720.44;3576810;40;20072;-62
2022/11/07 07:55:34;;;;;;;12.65;2.90;;;;;;;13.21;76.46;100675.16;3580031;40;20095;-61
2022/11/07 07:57:59;;;;;;;10.90;2.60;;;;;;;13.44;76.68;100702.28;3577530;40;20055;-61
2022/11/07 08:00:25;;;;;;;15.40;2.53;;;;;;;13.55;76.26;100709.56;3578021;40;20052;-62
2022/11/07 08:02:50;;;;;;;11.32;2.22;;;;;;;13.67;76.14;100714.06;3576073;40;20080;-62
2022/11/07 08:05:16;;;;;;;10.07;2.53;;;;;;;13.76;75.82;100713.31;3578539;40;20118;-61
2022/11/07 08:07:48;;;;;;;7.95;2.08;;;;;;;13.80;75.06;100709.41;3578057;40;20065;-62
2022/11/07 08:10:17;;;;;;;12.98;3.17;;;;;;;13.83;75.23;100706.47;3578032;40;20415;-62
2022/11/07 08:12:50;;;;;;;10.07;2.70;;;;;;;13.84;75.31;100715.44;3577293;40;20146;-61
2022/11/07 08:15:18;;;;;;;9.48;2.50;;;;;;;13.87;75.07;100710.66;3575637;40;20056;-61
2022/11/07 08:17:45;;;;;;;13.73;2.95;;;;;;;13.91;75.54;100708.56;3575555;40;20052;-62
2022/11/07 08:20:15;;;;;;;15.27;2.90;;;;;;;13.97;75.15;100708.09;3577817;40;20101;-61
2022/11/07 08:22:42;;;;;;;10.18;2.85;;;;;;;14.03;74.89;100720.28;3577634;40;20497;-61
2022/11/07 08:25:10;;;;;;;11.15;2.80;;;;;;;13.95;74.68;100693.84;3578863;40;20056;-61
2022/11/07 08:27:37;;;;;;;12.52;2.65;;;;;;;14.04;74.90;100712.03;3578042;40;20074;-61
2022/11/07 08:30:07;;;;;;;10.02;2.38;;;;;;;13.99;74.79;100719.66;3579013;40;20045;-62
2022/11/07 08:32:33;;;;;;;8.27;3.10;;;;;;;13.96;75.04;100725.31;3576504;40;20075;-61
2022/11/07 08:34:59;;;;;;;12.18;2.30;;;;;;;13.93;75.60;100722.84;3580083;40;20403;-61
2022/11/07 08:37:25;;;;;;;14.10;2.63;;;;;;;13.88;75.06;100715.06;3579838;40;20060;-61
2022/11/07 08:39:50;;;;;;;12.75;2.60;;;;;;;13.91;75.32;100711.28;3580727;40;20057;-61
2022/11/07 08:42:16;;;;;;;13.30;2.70;;;;;;;13.97;75.65;100716.22;3578838;40;20052;-61
2022/11/07 08:44:42;;;;;;;10.55;3.58;;;;;;;14.01;75.37;100725.78;3578633;40;20064;-61
2022/11/07 08:47:08;;;;;;;13.85;2.85;;;;;;;14.08;75.53;100727.06;3579008;40;20787;-61
2022/11/07 08:49:33;;;;;;;9.45;2.67;;;;;;;14.17;74.81;100729.00;3576848;40;20074;-62
2022/11/07 08:52:00;;;;;;;8.85;2.63;;;;;;;14.16;74.75;100716.47;3580199;40;20286;-61
2022/11/07 08:54:27;;;;;;;11.00;2.90;;;;;;;14.31;74.08;100744.16;3575000;40;20041;-62
2022/11/07 08:56:53;;;;;;;9.95;2.35;;;;;;;14.34;74.21;100734.97;3580675;40;20397;-61
2022/11/07 08:59:19;;;;;;;8.00;2.63;;;;;;;14.33;74.17;100744.88;3582111;40;20048;-61
2022/11/07 09:01:45;;;;;;;13.07;2.85;;;;;;;14.43;73.72;100749.56;3582022;40;20137;-61
2022/11/07 09:04:10;;;;;;;11.98;3.22;;;;;;;14.42;73.92;100764.94;3577919;40;20047;-61
2022/11/07 09:06:36;;;;;;;11.68;2.50;;;;;;;14.37;74.09;100761.75;3576917;40;20078;-61
2022/11/07 09:09:02;;;;;;;13.63;2.88;;;;;;;14.38;74.37;100761.63;3578098;40;20105;-62
2022/11/07 09:11:27;;;;;;;13.95;2.67;;;;;;;14.40;74.25;100766.94;3578770;40;20056;-61
2022/11/07 09:13:55;;;;;;;13.00;2.80;;;;;;;14.44;74.36;100767.53;3579371;40;20063;-61
2022/11/07 09:16:23;;;;;;;8.30;2.08;;;;;;;14.38;74.18;100763.47;3579211;40;20402;-61
2022/11/07 09:18:53;;;;;;;7.45;2.67;;;;;;;14.36;74.40;100762.72;3580882;40;20482;-61
2022/11/07 09:21:19;;;;;;;9.70;2.50;;;;;;;14.36;74.77;100765.41;3574477;40;20078;-60
2022/11/07 09:23:44;;;;;;;12.63;2.58;;;;;;;14.42;74.32;100770.34;3578483;40;20072;-61
2022/11/07 09:26:10;;;;;;;9.27;2.80;;;;;;;14.42;74.45;100780.31;3577735;40;20098;-60
2022/11/07 09:28:36;;;;;;;12.80;2.40;;;;;;;14.44;74.33;100784.63;3577742;40;20079;-60
2022/11/07 09:31:04;;;;;;;7.13;2.20;;;;;;;14.49;73.95;100782.41;3579308;40;20736;-61
2022/11/07 09:33:31;;;;;;;13.65;2.85;;;;;;;14.47;73.90;100772.72;3575842;40;20068;-61
2022/11/07 09:36:02;;;;;;;9.70;2.40;;;;;;;14.49;73.82;100787.81;3578144;40;20072;-60
2022/11/07 09:38:28;;;;;;;11.90;2.33;;;;;;;14.42;74.12;100772.19;3575433;40;20048;-61
2022/11/07 09:41:48;;;;;;;8.43;2.40;;;;;;;14.50;73.18;100778.72;3579179;40;20056;-61
2022/11/07 09:44:36;;;;;;;7.65;2.28;;;;;;;14.51;73.86;100769.66;3580828;40;20093;-60
2022/11/07 09:47:21;;;;;;;11.68;2.38;;;;;;;14.54;73.51;100785.66;3582093;40;20088;-60
2022/11/07 09:49:51;;;;;;;9.63;3.05;;;;;;;14.59;73.53;100785.31;3580131;40;20146;-61
2022/11/07 09:52:39;;;;;;;15.50;3.15;;;;;;;14.59;73.60;100778.03;3580215;40;20064;-61
2022/11/07 09:55:32;;;;;;;8.25;2.45;;;;;;;14.62;73.89;100776.94;3580374;40;20048;-61
2022/11/07 09:58:06;;;;;;;10.80;3.03;;;;;;;14.67;73.93;100779.25;3580108;40;20056;-60
2022/11/07 10:00:33;;;;;;;10.18;2.63;;;;;;;14.71;72.99;100780.72;3575302;40;20090;-60
2022/11/07 10:03:01;;;;;;;10.60;2.47;;;;;;;14.79;73.23;100783.69;3580336;40;20070;-61
2022/11/07 10:05:57;;;;;;;11.32;2.83;;;;;;;14.88;73.40;100793.78;3577270;40;20064;-60
2022/11/07 10:08:39;;;;;;;12.07;2.83;;;;;;;14.95;73.35;100786.88;3575817;40;20178;-60
2022/11/07 10:11:33;;;;;;;10.27;2.70;;;;;;;14.97;71.96;100784.94;3579397;40;20548;-60
2022/11/07 10:14:45;;;;;;;12.95;2.83;;;;;;;14.98;72.05;100788.50;3578891;40;21202;-61
2022/11/07 10:17:58;;;;;;;12.55;2.72;;;;;;;14.97;72.30;100790.34;3571716;40;20095;-61
2022/11/07 10:21:21;;;;;;;10.48;2.53;;;;;;;15.02;72.19;100798.06;3576968;40;20052;-61
2022/11/07 10:24:30;;;;;;;8.60;2.58;;;;;;;15.09;71.00;100785.75;3572613;40;20387;-61
2022/11/07 10:26:57;;;;;;;10.38;2.60;;;;;;;15.18;71.14;100792.28;3581463;40;20051;-61
2022/11/07 10:29:28;;;;;;;8.55;2.63;;;;;;;15.30;70.93;100800.25;3579352;40;20394;-61
2022/11/07 10:31:58;;;;;;;12.00;3.22;;;;;;;15.37;69.95;100795.19;3578968;40;20064;-61
2022/11/07 10:34:45;;;;;;;10.20;2.58;;;;;;;15.39;69.92;100798.66;3577613;40;20051;-61
2022/11/07 10:37:10;;;;;;;13.55;2.65;;;;;;;15.42;69.04;100801.09;3576823;40;20049;-61
2022/11/07 10:39:36;;;;;;;9.60;2.58;;;;;;;15.42;69.29;100808.38;3577304;40;20092;-61
2022/11/07 10:42:17;;;;;;;13.25;3.22;;;;;;;15.42;69.73;100800.25;3578185;40;20414;-61
2022/11/07 10:44:44;;;;;;;9.60;2.53;;;;;;;15.50;69.10;100822.97;3577324;40;20064;-61
2022/11/07 10:47:23;;;;;;;12.70;2.80;;;;;;;15.53;69.67;100814.59;3579736;40;20068;-62
2022/11/07 10:49:59;;;;;;;11.85;2.50;;;;;;;15.60;69.02;100805.97;3577417;40;20066;-61
2022/11/07 10:52:27;;;;;;;12.27;2.53;;;;;;;15.58;68.84;100813.38;3577451;40;20060;-62
2022/11/07 10:55:42;;;;;;;11.73;2.50;;;;;;;15.56;69.39;100827.91;3577915;40;20092;-61
2022/11/07 10:58:18;;;;;;;14.38;2.85;;;;;;;15.35;68.37;100796.28;3548097;40;20060;-61
2022/11/07 11:00:55;;;;;;;13.73;3.05;;;;;;;15.54;68.37;100829.88;3575503;40;20059;-61
2022/11/07 11:03:29;;;;;;;11.07;2.83;;;;;;;15.55;68.74;100828.91;3577477;40;20056;-61
2022/11/07 11:05:55;;;;;;;6.28;2.38;;;;;;;15.53;68.41;100828.16;3580147;40;20095;-61
2022/11/07 11:08:30;;;;;;;13.32;2.50;;;;;;;15.48;68.29;100824.97;3579282;40;20099;-61
2022/11/07 11:10:56;;;;;;;11.40;2.55;;;;;;;15.46;68.83;100826.94;3579891;40;20148;-60
2022/11/07 11:13:33;;;;;;;11.95;2.90;;;;;;;15.49;68.21;100821.28;3578574;40;20298;-60
2022/11/07 11:16:29;;;;;;;11.80;2.88;;;;;;;15.46;68.13;100826.94;3576147;40;20065;-61
2022/11/07 11:18:59;;;;;;;16.52;3.92;;;;;;;15.46;68.64;100816.09;3579946;40;20045;-61
2022/11/07 11:21:25;;;;;;;10.60;2.83;;;;;;;15.47;68.86;100811.53;3579610;40;20052;-61
2022/11/07 11:23:53;;;;;;;9.82;2.80;;;;;;;15.50;68.58;100809.44;3577971;40;20048;-61
2022/11/07 11:26:35;;;;;;;14.57;2.75;;;;;;;15.52;68.04;100804.75;3577863;40;20048;-61
2022/11/07 11:29:13;;;;;;;14.02;3.30;;;;;;;15.54;68.66;100816.34;3580008;40;20041;-61
2022/11/07 11:31:49;;;;;;;10.40;2.60;;;;;;;15.77;67.55;100808.19;3581419;40;20343;-61
2022/11/07 11:34:43;;;;;;;12.48;3.42;;;;;;;15.89;67.44;100796.31;3578973;40;20049;-60
2022/11/07 11:37:21;;;;;;;6.68;2.28;;;;;;;15.99;65.96;100804.50;3577218;40;20052;-61
2022/11/07 11:39:58;;;;;;;8.23;2.30;;;;;;;16.02;65.95;100796.97;3581259;40;20585;-61
2022/11/07 11:42:47;;;;;;;13.13;3.03;;;;;;;16.05;66.66;100803.09;3576685;40;20306;-60
2022/11/07 11:45:38;;;;;;;13.02;2.45;;;;;;;16.11;65.67;100791.75;3577812;40;20048;-60